sensor_id;sensor_type;location;lat;lon;timestamp;P1;durP1;ratioP1;P2;durP2;ratioP2
19967;SDS011;10145;49.152;9.282;2022-08-14T04:02:37;7.97;;;7.18;;
19967;SDS011;10145;49.152;9.282;2022-08-14T04:05:05;10.43;;;7.18;;
19967;SDS011;10145;49.152;9.282;2022-08-14T04:07:32;9.95;;;7.75;;
19967;SDS011;10145;49.152;9.282;2022-08-14T04:09:58;8.43;;;7.47;;
19967;SDS011;10145;49.152;9.282;2022-08-14T04:12:24;7.65;;;6.95;;
19967;SDS011;10145;49.152;9.282;2022-08-14T04:14:49;8.32;;;7.40;;
19967;SDS011;10145;49.152;9.282;2022-08-14T04:17:16;8.18;;;7.38;;
19967;SDS011;10145;49.152;9.282;2022-08-14T04:19:45;10.00;;;7.40;;
19967;SDS011;10145;49.152;9.282;2022-08-14T04:22:11;8.77;;;6.70;;
19967;SDS011;10145;49.152;9.282;2022-08-14T04:24:37;7.85;;;7.15;;
19967;SDS011;10145;49.152;9.282;2022-08-14T04:27:04;7.90;;;7.10;;
19967;SDS011;10145;49.152;9.282;2022-08-14T04:29:32;7.85;;;7.13;;
19967;SDS011;10145;49.152;9.282;2022-08-14T04:32:02;8.40;;;7.50;;
19967;SDS011;10145;49.152;9.282;2022-08-14T04:34:28;7.53;;;6.82;;
19967;SDS011;10145;49.152;9.282;2022-08-14T04:36:54;7.90;;;7.20;;
19967;SDS011;10145;49.152;9.282;2022-08-14T04:39:38;8.63;;;7.43;;
19967;SDS011;10145;49.152;9.282;2022-08-14T04:42:23;8.07;;;7.28;;
19967;SDS011;10145;49.152;9.282;2022-08-14T04:45:07;10.45;;;7.35;;
19967;SDS011;10145;49.152;9.282;2022-08-14T04:47:33;8.70;;;7.80;;
19967;SDS011;10145;49.152;9.282;2022-08-14T04:50:17;8.75;;;7.20;;
19967;SDS011;10145;49.152;9.282;2022-08-14T04:52:43;8.70;;;7.60;;
19967;SDS011;10145;49.152;9.282;2022-08-14T04:55:08;8.23;;;7.43;;
19967;SDS011;10145;49.152;9.282;2022-08-14T04:57:36;8.07;;;7.28;;
19967;SDS011;10145;49.152;9.282;2022-08-14T05:00:03;8.52;;;7.65;;
19967;SDS011;10145;49.152;9.282;2022-08-14T05:02:30;9.52;;;7.63;;
19967;SDS011;10145;49.152;9.282;2022-08-14T05:04:58;10.27;;;7.93;;
19967;SDS011;10145;49.152;9.282;2022-08-14T05:07:24;9.05;;;7.07;;
19967;SDS011;10145;49.152;9.282;2022-08-14T05:09:50;10.85;;;7.70;;
19967;SDS011;10145;49.152;9.282;2022-08-14T05:12:15;8.32;;;7.00;;
19967;SDS011;10145;49.152;9.282;2022-08-14T05:14:41;9.27;;;7.68;;
19967;SDS011;10145;49.152;9.282;2022-08-14T05:17:07;8.55;;;7.65;;
19967;SDS011;10145;49.152;9.282;2022-08-14T05:19:34;8.35;;;7.40;;
19967;SDS011;10145;49.152;9.282;2022-08-14T05:22:00;8.27;;;7.47;;
19967;SDS011;10145;49.152;9.282;2022-08-14T05:24:26;9.98;;;7.60;;
19967;SDS011;10145;49.152;9.282;2022-08-14T05:26:53;10.15;;;7.72;;
19967;SDS011;10145;49.152;9.282;2022-08-14T05:29:19;8.18;;;7.38;;
19967;SDS011;10145;49.152;9.282;2022-08-14T05:31:44;7.60;;;6.80;;
19967;SDS011;10145;49.152;9.282;2022-08-14T05:34:10;9.73;;;7.30;;
19967;SDS011;10145;49.152;9.282;2022-08-14T05:36:35;9.27;;;7.88;;
19967;SDS011;10145;49.152;9.282;2022-08-14T05:39:03;8.48;;;7.57;;
19967;SDS011;10145;49.152;9.282;2022-08-14T05:41:28;12.18;;;7.85;;
19967;SDS011;10145;49.152;9.282;2022-08-14T05:43:55;9.55;;;7.65;;
19967;SDS011;10145;49.152;9.282;2022-08-14T05:46:21;12.80;;;8.40;;
19967;SDS011;10145;49.152;9.282;2022-08-14T05:48:49;10.10;;;8.02;;
19967;SDS011;10145;49.152;9.282;2022-08-14T05:51:17;9.05;;;7.90;;
19967;SDS011;10145;49.152;9.282;2022-08-14T05:53:43;9.00;;;7.53;;
19967;SDS011;10145;49.152;9.282;2022-08-14T05:56:09;8.18;;;7.32;;
19967;SDS011;10145;49.152;9.282;2022-08-14T05:58:35;8.07;;;7.18;;
19967;SDS011;10145;49.152;9.282;2022-08-14T06:01:01;8.23;;;7.18;;
19967;SDS011;10145;49.152;9.282;2022-08-14T06:03:27;7.93;;;7.15;;
19967;SDS011;10145;49.152;9.282;2022-08-14T06:05:53;10.77;;;6.65;;
19967;SDS011;10145;49.152;9.282;2022-08-14T06:08:23;8.07;;;7.28;;
19967;SDS011;10145;49.152;9.282;2022-08-14T06:10:49;7.20;;;6.43;;
19967;SDS011;10145;49.152;9.282;2022-08-14T06:13:16;8.35;;;7.07;;
19967;SDS011;10145;49.152;9.282;2022-08-14T06:15:43;7.47;;;6.78;;
19967;SDS011;10145;49.152;9.282;2022-08-14T06:18:09;8.32;;;7.28;;
19967;SDS011;10145;49.152;9.282;2022-08-14T06:20:35;7.43;;;6.68;;
19967;SDS011;10145;49.152;9.282;2022-08-14T06:23:02;7.47;;;6.78;;
19967;SDS011;10145;49.152;9.282;2022-08-14T06:25:27;8.18;;;6.95;;
19967;SDS011;10145;49.152;9.282;2022-08-14T06:27:54;10.50;;;7.53;;
19967;SDS011;10145;49.152;9.282;2022-08-14T06:30:21;8.00;;;7.20;;
19967;SDS011;10145;49.152;9.282;2022-08-14T06:32:48;6.78;;;6.15;;
19967;SDS011;10145;49.152;9.282;2022-08-14T06:35:14;9.00;;;6.93;;
19967;SDS011;10145;49.152;9.282;2022-08-14T06:37:48;8.68;;;6.65;;
19967;SDS011;10145;49.152;9.282;2022-08-14T06:40:20;11.30;;;7.32;;
19967;SDS011;10145;49.152;9.282;2022-08-14T06:42:46;9.05;;;6.70;;
19967;SDS011;10145;49.152;9.282;2022-08-14T06:45:12;9.98;;;7.03;;
19967;SDS011;10145;49.152;9.282;2022-08-14T06:47:40;6.80;;;6.13;;
19967;SDS011;10145;49.152;9.282;2022-08-14T06:50:08;9.63;;;6.93;;
19967;SDS011;10145;49.152;9.282;2022-08-14T06:52:35;11.80;;;6.72;;
19967;SDS011;10145;49.152;9.282;2022-08-14T06:55:02;7.65;;;6.60;;
19967;SDS011;10145;49.152;9.282;2022-08-14T06:57:35;8.02;;;6.50;;
19967;SDS011;10145;49.152;9.282;2022-08-14T07:00:05;7.20;;;6.40;;
19967;SDS011;10145;49.152;9.282;2022-08-14T07:02:32;7.45;;;6.75;;
19967;SDS011;10145;49.152;9.282;2022-08-14T07:05:16;7.20;;;6.50;;
19967;SDS011;10145;49.152;9.282;2022-08-14T07:08:01;7.88;;;6.10;;
19967;SDS011;10145;49.152;9.282;2022-08-14T07:10:27;8.82;;;6.75;;
19967;SDS011;10145;49.152;9.282;2022-08-14T07:12:53;7.82;;;6.43;;
19967;SDS011;10145;49.152;9.282;2022-08-14T07:15:18;7.78;;;6.50;;
19967;SDS011;10145;49.152;9.282;2022-08-14T07:17:47;8.20;;;5.97;;
19967;SDS011;10145;49.152;9.282;2022-08-14T07:20:15;6.43;;;5.82;;
19967;SDS011;10145;49.152;9.282;2022-08-14T07:22:44;8.10;;;6.18;;
19967;SDS011;10145;49.152;9.282;2022-08-14T07:25:13;8.35;;;6.22;;
19967;SDS011;10145;49.152;9.282;2022-08-14T07:27:39;8.48;;;5.97;;
19967;SDS011;10145;49.152;9.282;2022-08-14T07:30:05;7.18;;;5.75;;
19967;SDS011;10145;49.152;9.282;2022-08-14T07:32:32;6.13;;;5.53;;
19967;SDS011;10145;49.152;9.282;2022-08-14T07:34:57;7.85;;;5.57;;
19967;SDS011;10145;49.152;9.282;2022-08-14T07:37:23;7.47;;;5.32;;
19967;SDS011;10145;49.152;9.282;2022-08-14T07:39:48;7.88;;;5.25;;
19967;SDS011;10145;49.152;9.282;2022-08-14T07:42:15;6.82;;;5.63;;
19967;SDS011;10145;49.152;9.282;2022-08-14T07:44:41;8.13;;;5.47;;
19967;SDS011;10145;49.152;9.282;2022-08-14T07:47:07;5.60;;;4.85;;
19967;SDS011;10145;49.152;9.282;2022-08-14T07:49:32;7.45;;;5.20;;
19967;SDS011;10145;49.152;9.282;2022-08-14T07:51:58;5.40;;;4.88;;
19967;SDS011;10145;49.152;9.282;2022-08-14T07:54:27;5.57;;;5.00;;
19967;SDS011;10145;49.152;9.282;2022-08-14T07:56:53;5.93;;;5.32;;
19967;SDS011;10145;49.152;9.282;2022-08-14T07:59:19;6.93;;;4.93;;
19967;SDS011;10145;49.152;9.282;2022-08-14T08:01:46;5.50;;;4.95;;
19967;SDS011;10145;49.152;9.282;2022-08-14T08:04:11;7.75;;;4.47;;
19967;SDS011;10145;49.152;9.282;2022-08-14T08:06:38;6.00;;;4.93;;
19967;SDS011;10145;49.152;9.282;2022-08-14T08:09:04;5.25;;;4.75;;
19967;SDS011;10145;49.152;9.282;2022-08-14T08:11:33;6.28;;;4.38;;
19967;SDS011;10145;49.152;9.282;2022-08-14T08:14:01;6.55;;;4.60;;
19967;SDS011;10145;49.152;9.282;2022-08-14T08:16:31;5.30;;;4.60;;
19967;SDS011;10145;49.152;9.282;2022-08-14T08:18:57;5.30;;;4.22;;
19967;SDS011;10145;49.152;9.282;2022-08-14T08:21:23;5.55;;;4.57;;
19967;SDS011;10145;49.152;9.282;2022-08-14T08:23:50;5.88;;;4.28;;
19967;SDS011;10145;49.152;9.282;2022-08-14T08:26:16;7.40;;;4.50;;
19967;SDS011;10145;49.152;9.282;2022-08-14T08:28:41;4.93;;;4.45;;
19967;SDS011;10145;49.152;9.282;2022-08-14T08:31:07;4.88;;;4.43;;
19967;SDS011;10145;49.152;9.282;2022-08-14T08:33:33;7.15;;;4.30;;
19967;SDS011;10145;49.152;9.282;2022-08-14T08:36:00;6.97;;;4.18;;
19967;SDS011;10145;49.152;9.282;2022-08-14T08:38:32;6.13;;;4.32;;
19967;SDS011;10145;49.152;9.282;2022-08-14T08:40:59;3.95;;;3.65;;
19967;SDS011;10145;49.152;9.282;2022-08-14T08:43:26;4.13;;;3.83;;
19967;SDS011;10145;49.152;9.282;2022-08-14T08:46:00;4.10;;;3.70;;
19967;SDS011;10145;49.152;9.282;2022-08-14T08:48:28;4.78;;;3.90;;
19967;SDS011;10145;49.152;9.282;2022-08-14T08:51:34;4.75;;;3.80;;
19967;SDS011;10145;49.152;9.282;2022-08-14T08:56:35;4.60;;;3.55;;
19967;SDS011;10145;49.152;9.282;2022-08-14T09:01:52;4.80;;;3.67;;
19967;SDS011;10145;49.152;9.282;2022-08-14T09:04:24;6.75;;;4.18;;
19967;SDS011;10145;49.152;9.282;2022-08-14T09:06:51;4.25;;;3.38;;
19967;SDS011;10145;49.152;9.282;2022-08-14T09:09:21;9.48;;;3.53;;
19967;SDS011;10145;49.152;9.282;2022-08-14T09:11:49;3.85;;;3.30;;
19967;SDS011;10145;49.152;9.282;2022-08-14T09:14:18;4.88;;;3.00;;
19967;SDS011;10145;49.152;9.282;2022-08-14T09:16:43;3.40;;;3.00;;
19967;SDS011;10145;49.152;9.282;2022-08-14T09:19:09;3.05;;;2.70;;
19967;SDS011;10145;49.152;9.282;2022-08-14T09:21:36;3.22;;;2.92;;
19967;SDS011;10145;49.152;9.282;2022-08-14T09:24:04;4.07;;;3.00;;
19967;SDS011;10145;49.152;9.282;2022-08-14T09:26:31;2.85;;;2.58;;
19967;SDS011;10145;49.152;9.282;2022-08-14T09:28:57;3.55;;;3.22;;
19967;SDS011;10145;49.152;9.282;2022-08-14T09:31:23;5.28;;;3.70;;
19967;SDS011;10145;49.152;9.282;2022-08-14T09:36:47;2.90;;;2.70;;
19967;SDS011;10145;49.152;9.282;2022-08-14T09:42:15;3.88;;;3.00;;
19967;SDS011;10145;49.152;9.282;2022-08-14T09:47:18;4.03;;;2.80;;
19967;SDS011;10145;49.152;9.282;2022-08-14T09:49:45;3.50;;;3.08;;
19967;SDS011;10145;49.152;9.282;2022-08-14T09:52:11;6.85;;;3.17;;
19967;SDS011;10145;49.152;9.282;2022-08-14T09:54:40;3.72;;;2.83;;
19967;SDS011;10145;49.152;9.282;2022-08-14T09:57:07;4.03;;;2.75;;
19967;SDS011;10145;49.152;9.282;2022-08-14T09:59:49;3.33;;;3.03;;
19967;SDS011;10145;49.152;9.282;2022-08-14T10:04:59;2.90;;;2.53;;
19967;SDS011;10145;49.152;9.282;2022-08-14T10:07:33;4.93;;;3.20;;
19967;SDS011;10145;49.152;9.282;2022-08-14T10:10:27;3.45;;;3.13;;
19967;SDS011;10145;49.152;9.282;2022-08-14T10:12:58;3.78;;;3.10;;
19967;SDS011;10145;49.152;9.282;2022-08-14T10:15:26;2.90;;;2.70;;
19967;SDS011;10145;49.152;9.282;2022-08-14T10:20:38;3.25;;;2.90;;
19967;SDS011;10145;49.152;9.282;2022-08-14T10:23:11;2.92;;;2.70;;
19967;SDS011;10145;49.152;9.282;2022-08-14T10:25:45;3.45;;;3.00;;
19967;SDS011;10145;49.152;9.282;2022-08-14T10:28:14;3.70;;;3.08;;
19967;SDS011;10145;49.152;9.282;2022-08-14T10:30:45;5.00;;;3.10;;
19967;SDS011;10145;49.152;9.282;2022-08-14T10:33:24;3.95;;;3.08;;
19967;SDS011;10145;49.152;9.282;2022-08-14T10:35:53;3.45;;;3.15;;
19967;SDS011;10145;49.152;9.282;2022-08-14T10:38:26;3.50;;;3.20;;
19967;SDS011;10145;49.152;9.282;2022-08-14T10:41:08;4.72;;;3.53;;
19967;SDS011;10145;49.152;9.282;2022-08-14T10:43:39;3.78;;;3.47;;
19967;SDS011;10145;49.152;9.282;2022-08-14T10:46:16;3.50;;;3.20;;
19967;SDS011;10145;49.152;9.282;2022-08-14T10:48:55;4.78;;;3.22;;
19967;SDS011;10145;49.152;9.282;2022-08-14T10:51:27;5.15;;;3.33;;
19967;SDS011;10145;49.152;9.282;2022-08-14T10:53:55;4.30;;;3.75;;
19967;SDS011;10145;49.152;9.282;2022-08-14T10:56:29;4.25;;;3.60;;
19967;SDS011;10145;49.152;9.282;2022-08-14T11:01:30;5.55;;;3.08;;
19967;SDS011;10145;49.152;9.282;2022-08-14T11:03:56;3.75;;;3.30;;
19967;SDS011;10145;49.152;9.282;2022-08-14T11:06:22;3.60;;;3.35;;
19967;SDS011;10145;49.152;9.282;2022-08-14T11:08:48;3.55;;;3.25;;
19967;SDS011;10145;49.152;9.282;2022-08-14T11:11:15;5.38;;;3.50;;
19967;SDS011;10145;49.152;9.282;2022-08-14T11:13:42;4.57;;;3.33;;
19967;SDS011;10145;49.152;9.282;2022-08-14T11:16:10;3.70;;;3.40;;
19967;SDS011;10145;49.152;9.282;2022-08-14T11:18:39;3.60;;;3.30;;
19967;SDS011;10145;49.152;9.282;2022-08-14T11:21:11;3.60;;;3.30;;
19967;SDS011;10145;49.152;9.282;2022-08-14T11:23:40;3.72;;;3.10;;
19967;SDS011;10145;49.152;9.282;2022-08-14T11:26:10;3.97;;;3.22;;
19967;SDS011;10145;49.152;9.282;2022-08-14T11:28:38;3.78;;;3.10;;
19967;SDS011;10145;49.152;9.282;2022-08-14T11:31:07;4.10;;;3.30;;
19967;SDS011;10145;49.152;9.282;2022-08-14T11:33:34;3.40;;;3.10;;
19967;SDS011;10145;49.152;9.282;2022-08-14T11:36:04;3.95;;;3.28;;
19967;SDS011;10145;49.152;9.282;2022-08-14T11:38:49;4.80;;;3.58;;
19967;SDS011;10145;49.152;9.282;2022-08-14T11:41:15;3.40;;;3.10;;
19967;SDS011;10145;49.152;9.282;2022-08-14T11:43:40;4.28;;;3.40;;
19967;SDS011;10145;49.152;9.282;2022-08-14T11:46:08;3.28;;;2.97;;
19967;SDS011;10145;49.152;9.282;2022-08-14T11:48:44;5.07;;;3.13;;
19967;SDS011;10145;49.152;9.282;2022-08-14T11:51:21;3.63;;;3.30;;
19967;SDS011;10145;49.152;9.282;2022-08-14T11:53:54;3.42;;;3.13;;
19967;SDS011;10145;49.152;9.282;2022-08-14T11:56:21;3.88;;;3.35;;
19967;SDS011;10145;49.152;9.282;2022-08-14T11:58:51;3.70;;;3.40;;
19967;SDS011;10145;49.152;9.282;2022-08-14T12:01:23;3.97;;;2.92;;
19967;SDS011;10145;49.152;9.282;2022-08-14T12:03:55;3.20;;;2.90;;
19967;SDS011;10145;49.152;9.282;2022-08-14T12:06:32;3.42;;;3.13;;
19967;SDS011;10145;49.152;9.282;2022-08-14T12:09:32;3.38;;;3.08;;
19967;SDS011;10145;49.152;9.282;2022-08-14T12:12:01;3.58;;;3.20;;
19967;SDS011;10145;49.152;9.282;2022-08-14T12:14:51;3.65;;;3.30;;
19967;SDS011;10145;49.152;9.282;2022-08-14T12:17:31;3.20;;;2.90;;
19967;SDS011;10145;49.152;9.282;2022-08-14T12:20:07;5.13;;;3.00;;
19967;SDS011;10145;49.152;9.282;2022-08-14T12:22:35;3.63;;;3.33;;
19967;SDS011;10145;49.152;9.282;2022-08-14T12:25:04;3.80;;;3.50;;
19967;SDS011;10145;49.152;9.282;2022-08-14T12:30:13;4.38;;;2.92;;
19967;SDS011;10145;49.152;9.282;2022-08-14T12:32:49;3.75;;;3.10;;
19967;SDS011;10145;49.152;9.282;2022-08-14T12:35:15;3.70;;;3.15;;
19967;SDS011;10145;49.152;9.282;2022-08-14T12:37:47;4.25;;;3.10;;
19967;SDS011;10145;49.152;9.282;2022-08-14T12:40:15;3.33;;;2.85;;
19967;SDS011;10145;49.152;9.282;2022-08-14T12:42:43;3.47;;;3.10;;
19967;SDS011;10145;49.152;9.282;2022-08-14T12:45:09;3.78;;;3.42;;
19967;SDS011;10145;49.152;9.282;2022-08-14T12:47:37;3.70;;;3.38;;
19967;SDS011;10145;49.152;9.282;2022-08-14T12:50:08;3.38;;;3.10;;
19967;SDS011;10145;49.152;9.282;2022-08-14T12:52:38;3.65;;;3.15;;
19967;SDS011;10145;49.152;9.282;2022-08-14T12:55:09;3.20;;;2.90;;
19967;SDS011;10145;49.152;9.282;2022-08-14T12:57:42;3.25;;;3.05;;
19967;SDS011;10145;49.152;9.282;2022-08-14T13:02:41;3.40;;;3.10;;
19967;SDS011;10145;49.152;9.282;2022-08-14T13:05:08;3.38;;;3.08;;
19967;SDS011;10145;49.152;9.282;2022-08-14T13:07:36;4.28;;;3.22;;
19967;SDS011;10145;49.152;9.282;2022-08-14T13:10:04;3.40;;;3.10;;
19967;SDS011;10145;49.152;9.282;2022-08-14T13:12:31;3.33;;;3.03;;
19967;SDS011;10145;49.152;9.282;2022-08-14T13:14:58;3.50;;;3.20;;
19967;SDS011;10145;49.152;9.282;2022-08-14T13:17:26;4.10;;;3.10;;
19967;SDS011;10145;49.152;9.282;2022-08-14T13:19:54;3.80;;;3.40;;
19967;SDS011;10145;49.152;9.282;2022-08-14T13:22:24;4.28;;;3.42;;
19967;SDS011;10145;49.152;9.282;2022-08-14T13:24:53;3.08;;;2.88;;
19967;SDS011;10145;49.152;9.282;2022-08-14T13:27:19;3.45;;;3.15;;
19967;SDS011;10145;49.152;9.282;2022-08-14T13:29:47;3.80;;;3.22;;
19967;SDS011;10145;49.152;9.282;2022-08-14T13:32:16;6.22;;;3.35;;
19967;SDS011;10145;49.152;9.282;2022-08-14T13:34:43;4.85;;;3.45;;
19967;SDS011;10145;49.152;9.282;2022-08-14T13:37:13;3.63;;;3.33;;
19967;SDS011;10145;49.152;9.282;2022-08-14T13:39:39;5.05;;;3.22;;
19967;SDS011;10145;49.152;9.282;2022-08-14T13:42:15;6.50;;;3.17;;
19967;SDS011;10145;49.152;9.282;2022-08-14T13:44:42;3.55;;;3.25;;
19967;SDS011;10145;49.152;9.282;2022-08-14T13:47:09;3.65;;;2.97;;
19967;SDS011;10145;49.152;9.282;2022-08-14T13:49:36;3.65;;;3.10;;
19967;SDS011;10145;49.152;9.282;2022-08-14T13:52:02;6.32;;;3.40;;
19967;SDS011;10145;49.152;9.282;2022-08-14T13:54:32;3.60;;;3.30;;
19967;SDS011;10145;49.152;9.282;2022-08-14T13:56:59;3.47;;;3.17;;
19967;SDS011;10145;49.152;9.282;2022-08-14T13:59:28;3.60;;;3.30;;
19967;SDS011;10145;49.152;9.282;2022-08-14T14:01:58;4.90;;;3.38;;
19967;SDS011;10145;49.152;9.282;2022-08-14T14:04:29;3.83;;;3.42;;
19967;SDS011;10145;49.152;9.282;2022-08-14T14:06:56;3.60;;;3.30;;
19967;SDS011;10145;49.152;9.282;2022-08-14T14:09:28;3.72;;;3.40;;
19967;SDS011;10145;49.152;9.282;2022-08-14T14:11:58;3.95;;;3.20;;
19967;SDS011;10145;49.152;9.282;2022-08-14T14:14:24;3.72;;;3.42;;
19967;SDS011;10145;49.152;9.282;2022-08-14T14:16:50;3.38;;;3.17;;
19967;SDS011;10145;49.152;9.282;2022-08-14T14:19:19;3.38;;;3.17;;
19967;SDS011;10145;49.152;9.282;2022-08-14T14:21:48;3.55;;;3.30;;
19967;SDS011;10145;49.152;9.282;2022-08-14T14:24:14;6.07;;;3.40;;
19967;SDS011;10145;49.152;9.282;2022-08-14T14:26:42;3.53;;;3.22;;
19967;SDS011;10145;49.152;9.282;2022-08-14T14:29:12;4.28;;;3.88;;
19967;SDS011;10145;49.152;9.282;2022-08-14T14:31:38;4.18;;;3.60;;
19967;SDS011;10145;49.152;9.282;2022-08-14T14:34:05;4.35;;;3.85;;
19967;SDS011;10145;49.152;9.282;2022-08-14T14:36:33;3.70;;;3.40;;
19967;SDS011;10145;49.152;9.282;2022-08-14T14:39:04;3.50;;;3.20;;
19967;SDS011;10145;49.152;9.282;2022-08-14T14:41:32;4.05;;;3.70;;
19967;SDS011;10145;49.152;9.282;2022-08-14T14:44:02;4.45;;;3.30;;
19967;SDS011;10145;49.152;9.282;2022-08-14T14:46:31;3.80;;;3.50;;
19967;SDS011;10145;49.152;9.282;2022-08-14T14:49:00;3.58;;;3.20;;
19967;SDS011;10145;49.152;9.282;2022-08-14T14:51:26;3.38;;;3.08;;
19967;SDS011;10145;49.152;9.282;2022-08-14T14:53:52;3.70;;;3.10;;
19967;SDS011;10145;49.152;9.282;2022-08-14T14:56:18;3.70;;;3.38;;
19967;SDS011;10145;49.152;9.282;2022-08-14T14:58:44;3.47;;;3.17;;
19967;SDS011;10145;49.152;9.282;2022-08-14T15:01:10;4.30;;;3.22;;
19967;SDS011;10145;49.152;9.282;2022-08-14T15:03:39;3.70;;;3.40;;
19967;SDS011;10145;49.152;9.282;2022-08-14T15:06:07;3.63;;;3.33;;
19967;SDS011;10145;49.152;9.282;2022-08-14T15:08:33;3.80;;;3.28;;
19967;SDS011;10145;49.152;9.282;2022-08-14T15:11:00;3.65;;;3.20;;
19967;SDS011;10145;49.152;9.282;2022-08-14T15:13:26;3.50;;;3.30;;
19967;SDS011;10145;49.152;9.282;2022-08-14T15:15:52;4.10;;;3.67;;
19967;SDS011;10145;49.152;9.282;2022-08-14T15:18:21;3.40;;;3.10;;
19967;SDS011;10145;49.152;9.282;2022-08-14T15:20:50;3.40;;;3.10;;
19967;SDS011;10145;49.152;9.282;2022-08-14T15:23:18;3.88;;;3.15;;
19967;SDS011;10145;49.152;9.282;2022-08-14T15:25:44;3.80;;;3.50;;
19967;SDS011;10145;49.152;9.282;2022-08-14T15:28:10;3.83;;;3.47;;
19967;SDS011;10145;49.152;9.282;2022-08-14T15:30:39;3.38;;;3.15;;
19967;SDS011;10145;49.152;9.282;2022-08-14T15:33:06;3.22;;;2.95;;
19967;SDS011;10145;49.152;9.282;2022-08-14T15:35:32;4.28;;;3.88;;
19967;SDS011;10145;49.152;9.282;2022-08-14T15:37:58;3.90;;;3.10;;
19967;SDS011;10145;49.152;9.282;2022-08-14T15:43:06;5.63;;;3.30;;
19967;SDS011;10145;49.152;9.282;2022-08-14T15:45:39;3.58;;;3.28;;
19967;SDS011;10145;49.152;9.282;2022-08-14T15:48:05;3.75;;;3.22;;
19967;SDS011;10145;49.152;9.282;2022-08-14T15:50:32;3.30;;;3.00;;
19967;SDS011;10145;49.152;9.282;2022-08-14T15:52:57;3.22;;;2.92;;
19967;SDS011;10145;49.152;9.282;2022-08-14T15:55:23;3.20;;;2.90;;
19967;SDS011;10145;49.152;9.282;2022-08-14T15:57:49;3.40;;;3.15;;
19967;SDS011;10145;49.152;9.282;2022-08-14T16:00:15;3.58;;;3.28;;
19967;SDS011;10145;49.152;9.282;2022-08-14T16:02:59;5.30;;;4.80;;
19967;SDS011;10145;49.152;9.282;2022-08-14T16:05:25;4.65;;;3.63;;
19967;SDS011;10145;49.152;9.282;2022-08-14T16:07:51;4.45;;;4.05;;
19967;SDS011;10145;49.152;9.282;2022-08-14T16:10:17;7.43;;;5.57;;
19967;SDS011;10145;49.152;9.282;2022-08-14T16:12:44;3.80;;;3.50;;
19967;SDS011;10145;49.152;9.282;2022-08-14T16:15:10;3.50;;;3.20;;
19967;SDS011;10145;49.152;9.282;2022-08-14T16:17:37;3.50;;;3.20;;
19967;SDS011;10145;49.152;9.282;2022-08-14T16:20:04;3.80;;;3.50;;
19967;SDS011;10145;49.152;9.282;2022-08-14T16:22:31;3.78;;;3.20;;
19967;SDS011;10145;49.152;9.282;2022-08-14T16:25:00;3.40;;;3.10;;
19967;SDS011;10145;49.152;9.282;2022-08-14T16:27:27;3.65;;;3.35;;
19967;SDS011;10145;49.152;9.282;2022-08-14T16:29:55;5.00;;;3.20;;
19967;SDS011;10145;49.152;9.282;2022-08-14T16:32:20;3.22;;;3.00;;
19967;SDS011;10145;49.152;9.282;2022-08-14T16:34:47;3.65;;;3.33;;
19967;SDS011;10145;49.152;9.282;2022-08-14T16:37:14;3.88;;;2.88;;
19967;SDS011;10145;49.152;9.282;2022-08-14T16:39:42;3.53;;;3.22;;
19967;SDS011;10145;49.152;9.282;2022-08-14T16:42:09;5.72;;;3.25;;
19967;SDS011;10145;49.152;9.282;2022-08-14T16:44:36;3.03;;;2.83;;
19967;SDS011;10145;49.152;9.282;2022-08-14T16:47:11;3.00;;;2.78;;
19967;SDS011;10145;49.152;9.282;2022-08-14T16:49:38;3.38;;;3.08;;
19967;SDS011;10145;49.152;9.282;2022-08-14T16:52:06;3.38;;;3.08;;
19967;SDS011;10145;49.152;9.282;2022-08-14T16:54:33;5.82;;;3.40;;
19967;SDS011;10145;49.152;9.282;2022-08-14T16:57:13;3.22;;;3.00;;
19967;SDS011;10145;49.152;9.282;2022-08-14T16:59:40;3.25;;;2.95;;
19967;SDS011;10145;49.152;9.282;2022-08-14T17:02:06;3.20;;;3.00;;
19967;SDS011;10145;49.152;9.282;2022-08-14T17:04:33;3.72;;;3.42;;
19967;SDS011;10145;49.152;9.282;2022-08-14T17:07:00;3.53;;;3.22;;
19967;SDS011;10145;49.152;9.282;2022-08-14T17:11:59;4.80;;;3.22;;
19967;SDS011;10145;49.152;9.282;2022-08-14T17:20:15;6.72;;;4.57;;
19967;SDS011;10145;49.152;9.282;2022-08-14T17:25:22;3.53;;;2.67;;
19967;SDS011;10145;49.152;9.282;2022-08-14T17:30:53;4.10;;;2.95;;
19967;SDS011;10145;49.152;9.282;2022-08-14T17:33:22;4.13;;;2.90;;
19967;SDS011;10145;49.152;9.282;2022-08-14T17:36:12;3.30;;;3.00;;
19967;SDS011;10145;49.152;9.282;2022-08-14T17:38:55;3.75;;;2.83;;
19967;SDS011;10145;49.152;9.282;2022-08-14T17:41:39;4.20;;;3.00;;
19967;SDS011;10145;49.152;9.282;2022-08-14T17:44:11;3.53;;;3.00;;
19967;SDS011;10145;49.152;9.282;2022-08-14T17:46:38;5.50;;;3.50;;
19967;SDS011;10145;49.152;9.282;2022-08-14T17:49:06;3.20;;;2.90;;
19967;SDS011;10145;49.152;9.282;2022-08-14T17:51:33;4.28;;;3.00;;
19967;SDS011;10145;49.152;9.282;2022-08-14T17:54:03;3.60;;;3.00;;
19967;SDS011;10145;49.152;9.282;2022-08-14T17:56:35;6.80;;;3.33;;
19967;SDS011;10145;49.152;9.282;2022-08-14T17:59:01;5.00;;;3.30;;
19967;SDS011;10145;49.152;9.282;2022-08-14T18:01:28;4.30;;;3.10;;
19967;SDS011;10145;49.152;9.282;2022-08-14T18:03:55;3.63;;;3.20;;
19967;SDS011;10145;49.152;9.282;2022-08-14T18:06:22;7.75;;;3.58;;
19967;SDS011;10145;49.152;9.282;2022-08-14T18:08:48;5.18;;;3.40;;
19967;SDS011;10145;49.152;9.282;2022-08-14T18:11:16;9.85;;;3.17;;
19967;SDS011;10145;49.152;9.282;2022-08-14T18:13:45;3.47;;;3.03;;
19967;SDS011;10145;49.152;9.282;2022-08-14T18:16:14;3.70;;;2.75;;
19967;SDS011;10145;49.152;9.282;2022-08-14T18:18:39;4.28;;;3.40;;
19967;SDS011;10145;49.152;9.282;2022-08-14T18:21:08;7.32;;;3.20;;
19967;SDS011;10145;49.152;9.282;2022-08-14T18:23:34;3.53;;;3.22;;
19967;SDS011;10145;49.152;9.282;2022-08-14T18:26:00;4.68;;;3.35;;
19967;SDS011;10145;49.152;9.282;2022-08-14T18:28:27;4.03;;;3.28;;
19967;SDS011;10145;49.152;9.282;2022-08-14T18:33:51;5.05;;;3.20;;
19967;SDS011;10145;49.152;9.282;2022-08-14T18:36:38;4.60;;;3.30;;
19967;SDS011;10145;49.152;9.282;2022-08-14T18:39:22;4.55;;;3.67;;
19967;SDS011;10145;49.152;9.282;2022-08-14T18:50:14;3.33;;;3.03;;
19967;SDS011;10145;49.152;9.282;2022-08-14T19:06:01;3.35;;;2.97;;
19967;SDS011;10145;49.152;9.282;2022-08-14T19:09:02;5.00;;;3.17;;
19967;SDS011;10145;49.152;9.282;2022-08-14T19:13:56;7.22;;;3.30;;
19967;SDS011;10145;49.152;9.282;2022-08-14T19:16:30;3.40;;;3.08;;
19967;SDS011;10145;49.152;9.282;2022-08-14T19:19:02;5.50;;;3.30;;
19967;SDS011;10145;49.152;9.282;2022-08-14T19:21:34;4.28;;;2.85;;
19967;SDS011;10145;49.152;9.282;2022-08-14T19:26:41;3.80;;;3.00;;
19967;SDS011;10145;49.152;9.282;2022-08-14T19:29:28;3.75;;;3.00;;
19967;SDS011;10145;49.152;9.282;2022-08-14T19:31:56;4.18;;;3.05;;
19967;SDS011;10145;49.152;9.282;2022-08-14T19:40:08;3.88;;;3.15;;
19967;SDS011;10145;49.152;9.282;2022-08-14T19:42:36;5.28;;;3.08;;
19967;SDS011;10145;49.152;9.282;2022-08-14T19:45:03;3.22;;;3.00;;
19967;SDS011;10145;49.152;9.282;2022-08-14T19:47:36;3.78;;;3.20;;
19967;SDS011;10145;49.152;9.282;2022-08-14T19:50:03;5.95;;;3.08;;
19967;SDS011;10145;49.152;9.282;2022-08-14T19:52:32;5.03;;;3.20;;
19967;SDS011;10145;49.152;9.282;2022-08-14T19:55:01;5.38;;;3.00;;
19967;SDS011;10145;49.152;9.282;2022-08-14T19:57:38;3.90;;;2.92;;
19967;SDS011;10145;49.152;9.282;2022-08-14T20:02:41;7.22;;;3.50;;
19967;SDS011;10145;49.152;9.282;2022-08-14T20:05:12;4.30;;;3.30;;
19967;SDS011;10145;49.152;9.282;2022-08-14T20:07:39;5.22;;;3.17;;
19967;SDS011;10145;49.152;9.282;2022-08-14T20:10:30;5.40;;;3.00;;
19967;SDS011;10145;49.152;9.282;2022-08-14T20:12:57;5.25;;;3.30;;
19967;SDS011;10145;49.152;9.282;2022-08-14T20:15:25;4.80;;;3.60;;
19967;SDS011;10145;49.152;9.282;2022-08-14T20:17:53;5.75;;;3.70;;
19967;SDS011;10145;49.152;9.282;2022-08-14T20:20:20;6.60;;;3.00;;
19967;SDS011;10145;49.152;9.282;2022-08-14T20:22:46;4.82;;;3.30;;